Time;durP1;ratioP1;P1;durP2;ratioP2;P2;SDS_P1;SDS_P2;PMS_P1;PMS_P2;Temp;Humidity;BMP_temperature;BMP_pressure;BME280_temperature;BME280_humidity;BME280_pressure;Samples;Min_cycle;Max_cycle;Signal;HPM_P1;HPM_P2
2022/06/28 00:01:03;;;;;;;2.40;1.20;;;17.50;99.90;;;;;;10359105;28;20325;-67
2022/06/28 00:06:03;;;;;;;1.13;1.07;;;17.40;99.90;;;;;;10355927;28;20240;-67
2022/06/28 00:11:04;;;;;;;1.87;1.10;;;17.30;99.90;;;;;;10350597;28;20797;-67
2022/06/28 00:16:05;;;;;;;3.17;2.10;;;17.30;99.90;;;;;;10355403;28;20224;-67
2022/06/28 00:21:07;;;;;;;4.10;1.77;;;17.20;99.90;;;;;;10349645;28;20773;-67
2022/06/28 00:26:07;;;;;;;2.73;1.80;;;17.10;99.90;;;;;;10355225;28;20572;-67
2022/06/28 00:31:08;;;;;;;2.40;1.70;;;17.00;99.90;;;;;;10356628;28;20231;-67
2022/06/28 00:36:09;;;;;;;3.97;1.73;;;16.90;99.90;;;;;;10355414;28;20238;-67
2022/06/28 00:41:09;;;;;;;5.20;1.97;;;16.90;99.90;;;;;;10356530;28;20276;-67
2022/06/28 00:46:10;;;;;;;4.20;1.60;;;16.90;99.90;;;;;;10361128;28;20238;-68
2022/06/28 00:51:11;;;;;;;3.50;1.80;;;16.80;99.90;;;;;;10332672;28;20305;-67
2022/06/28 00:56:11;;;;;;;1.83;1.63;;;16.70;99.90;;;;;;10354019;28;20302;-68
2022/06/28 01:01:12;;;;;;;2.00;1.80;;;16.60;99.90;;;;;;10354656;28;20230;-67
2022/06/28 01:06:13;;;;;;;3.63;1.93;;;16.60;99.90;;;;;;10349831;28;20231;-67
2022/06/28 01:11:20;;;;;;;2.90;2.10;;;16.60;99.90;;;;;;10352056;28;20638;-67
2022/06/28 01:16:22;;;;;;;3.10;2.00;;;16.50;99.90;;;;;;10350313;28;20594;-66
2022/06/28 01:21:27;;;;;;;5.17;2.07;;;16.50;99.90;;;;;;10354837;28;20230;-67
2022/06/28 01:26:30;;;;;;;3.77;1.93;;;16.50;99.90;;;;;;10332136;28;20231;-67
2022/06/28 01:31:31;;;;;;;2.60;1.90;;;16.40;99.90;;;;;;10349866;28;20211;-67
2022/06/28 01:36:35;;;;;;;4.70;2.30;;;16.30;99.90;;;;;;10352686;28;20216;-68
2022/06/28 01:41:36;;;;;;;3.43;3.13;;;16.30;99.90;;;;;;10351514;28;20223;-67
2022/06/28 01:46:38;;;;;;;3.53;2.97;;;16.20;99.90;;;;;;10350296;28;20329;-67
2022/06/28 01:51:39;;;;;;;2.70;2.50;;;16.10;99.90;;;;;;10330176;28;20223;-67
2022/06/28 01:56:40;;;;;;;3.17;2.40;;;16.10;99.90;;;;;;10350624;28;20487;-67
2022/06/28 02:01:40;;;;;;;2.87;2.67;;;16.00;99.90;;;;;;10347175;28;20227;-67
2022/06/28 02:06:41;;;;;;;2.70;2.40;;;15.90;99.90;;;;;;10344030;28;20231;-67
2022/06/28 02:11:42;;;;;;;2.83;2.40;;;15.80;99.90;;;;;;10333584;28;20306;-67
2022/06/28 02:16:43;;;;;;;6.23;2.90;;;15.80;99.90;;;;;;10346235;28;20229;-67
2022/06/28 02:21:44;;;;;;;6.73;3.00;;;15.80;99.90;;;;;;10349584;28;20233;-67
2022/06/28 02:26:45;;;;;;;4.37;3.07;;;15.70;99.90;;;;;;10344593;28;20230;-67
2022/06/28 02:31:45;;;;;;;2.97;2.50;;;15.80;99.90;;;;;;10354578;28;20206;-67
2022/06/28 02:42:05;;;;;;;3.60;2.97;;;15.60;99.90;;;;;;10340823;28;20234;-68
2022/06/28 02:47:06;;;;;;;4.93;3.17;;;15.70;99.90;;;;;;10338016;28;20282;-66
2022/06/28 02:52:06;;;;;;;3.47;2.90;;;15.60;99.90;;;;;;10348545;28;20217;-67
2022/06/28 02:57:07;;;;;;;3.10;2.80;;;15.50;99.90;;;;;;10350460;28;20226;-67
2022/06/28 03:02:07;;;;;;;3.63;3.00;;;15.50;99.90;;;;;;10344689;28;20250;-67
2022/06/28 03:07:08;;;;;;;2.80;2.60;;;15.50;99.90;;;;;;10341660;28;20335;-67
2022/06/28 03:12:10;;;;;;;3.50;3.20;;;15.50;99.90;;;;;;10336672;28;20220;-68
2022/06/28 03:17:11;;;;;;;3.00;2.80;;;15.50;99.90;;;;;;10346009;28;20601;-66
2022/06/28 03:22:11;;;;;;;8.53;3.47;;;15.40;99.90;;;;;;10349102;28;20254;-67
2022/06/28 03:27:13;;;;;;;3.87;3.13;;;15.40;99.90;;;;;;10345379;28;20234;-67
2022/06/28 03:32:13;;;;;;;5.37;4.23;;;15.50;99.90;;;;;;10345678;28;20593;-67
2022/06/28 03:37:15;;;;;;;5.57;3.80;;;15.50;99.90;;;;;;10350793;28;20234;-68
2022/06/28 03:42:15;;;;;;;6.50;4.37;;;15.60;99.90;;;;;;10332850;28;20691;-67
2022/06/28 03:47:16;;;;;;;5.90;4.33;;;15.60;99.90;;;;;;10352818;28;20231;-68
2022/06/28 03:52:17;;;;;;;9.30;3.90;;;15.70;99.90;;;;;;10354922;28;20237;-65
2022/06/28 03:57:17;;;;;;;4.37;3.60;;;15.90;99.90;;;;;;10352880;28;20314;-65
2022/06/28 04:02:18;;;;;;;5.77;3.57;;;16.00;99.90;;;;;;10355346;28;20227;-65
2022/06/28 04:07:19;;;;;;;4.90;3.83;;;16.10;99.90;;;;;;10352310;28;20230;-65
2022/06/28 04:12:20;;;;;;;6.03;3.40;;;16.30;99.90;;;;;;10361230;28;20223;-65
2022/06/28 04:17:20;;;;;;;5.80;3.63;;;16.30;99.90;;;;;;10356965;28;20235;-65
2022/06/28 04:22:21;;;;;;;5.60;3.70;;;16.30;99.90;;;;;;10349155;28;20221;-68
2022/06/28 04:27:21;;;;;;;6.40;3.30;;;16.40;99.90;;;;;;10362294;28;20269;-65
2022/06/28 04:32:22;;;;;;;8.17;3.50;;;16.40;99.90;;;;;;10353221;28;20245;-70
2022/06/28 04:37:23;;;;;;;7.80;3.40;;;16.40;99.90;;;;;;10352779;28;20233;-70
2022/06/28 04:42:24;;;;;;;4.40;3.40;;;16.90;99.90;;;;;;10348470;28;20223;-70
2022/06/28 04:47:24;;;;;;;5.77;3.10;;;17.30;99.90;;;;;;10328793;28;20225;-70
2022/06/28 04:52:25;;;;;;;3.67;3.23;;;17.20;99.90;;;;;;10353807;28;20219;-71
2022/06/28 04:57:26;;;;;;;4.50;4.10;;;17.20;99.90;;;;;;10356099;28;20707;-70
2022/06/28 05:02:26;;;;;;;3.60;3.30;;;17.20;99.90;;;;;;10348804;28;20758;-71
2022/06/28 05:07:27;;;;;;;4.40;3.57;;;17.30;99.90;;;;;;10352813;28;20228;-70
2022/06/28 05:12:27;;;;;;;17.40;5.30;;;19.30;99.90;;;;;;10351697;28;20773;-70
2022/06/28 05:17:28;;;;;;;7.70;3.03;;;21.80;99.90;;;;;;10352234;28;20594;-70
2022/06/28 05:22:29;;;;;;;6.17;2.93;;;23.90;99.90;;;;;;10350722;28;20221;-69
2022/06/28 05:27:29;;;;;;;5.07;2.93;;;25.00;99.90;;;;;;10351638;28;20262;-70
2022/06/28 05:32:30;;;;;;;5.60;2.97;;;25.60;96.30;;;;;;10347468;28;20216;-72
2022/06/28 05:37:30;;;;;;;4.30;2.63;;;25.90;94.00;;;;;;10354835;28;20315;-70
2022/06/28 05:42:31;;;;;;;6.27;3.20;;;25.90;92.00;;;;;;10344246;28;20222;-71
2022/06/28 05:47:33;;;;;;;5.77;2.83;;;26.40;90.90;;;;;;10332676;28;20725;-71
2022/06/28 05:52:33;;;;;;;7.93;2.50;;;27.20;85.50;;;;;;10346816;28;20328;-70
2022/06/28 05:57:34;;;;;;;3.67;2.77;;;26.70;83.20;;;;;;10345243;28;20697;-71
2022/06/28 06:02:35;;;;;;;3.70;2.60;;;27.30;80.40;;;;;;10349094;28;20243;-70
2022/06/28 06:07:35;;;;;;;3.80;2.53;;;28.20;76.60;;;;;;10354294;28;20225;-71
2022/06/28 06:12:36;;;;;;;5.07;3.63;;;30.10;67.30;;;;;;10340452;28;20270;-72
2022/06/28 06:17:37;;;;;;;4.87;2.90;;;29.80;64.00;;;;;;10350599;28;20922;-70
2022/06/28 06:22:37;;;;;;;5.80;3.13;;;31.00;58.30;;;;;;10341397;28;20215;-71
2022/06/28 06:27:38;;;;;;;2.97;2.10;;;30.70;58.80;;;;;;10328595;28;20231;-70
2022/06/28 06:32:39;;;;;;;3.80;1.90;;;31.40;55.70;;;;;;10338288;28;20213;-70
2022/06/28 06:37:40;;;;;;;5.13;2.30;;;32.60;52.00;;;;;;10357247;28;20224;-70
2022/06/28 06:42:40;;;;;;;4.60;1.70;;;32.50;49.60;;;;;;10353609;28;20249;-72
2022/06/28 06:47:41;;;;;;;1.87;1.27;;;33.10;47.40;;;;;;10352586;28;20213;-70
2022/06/28 06:52:42;;;;;;;3.10;1.30;;;32.90;44.90;;;;;;10352071;28;20263;-70
2022/06/28 06:57:44;;;;;;;2.47;1.13;;;33.50;46.10;;;;;;10345539;28;20225;-70
2022/06/28 07:02:45;;;;;;;2.13;0.90;;;35.00;42.50;;;;;;10349488;28;20699;-71
2022/06/28 07:07:45;;;;;;;2.83;1.30;;;36.20;41.20;;;;;;10350589;28;20225;-71
2022/06/28 07:12:46;;;;;;;3.10;1.30;;;35.60;38.40;;;;;;10358026;28;20213;-70
2022/06/28 07:17:47;;;;;;;1.00;0.90;;;34.50;38.90;;;;;;10352959;28;20270;-70
2022/06/28 07:22:48;;;;;;;2.97;1.47;;;35.00;39.10;;;;;;10340027;28;20233;-70
2022/06/28 07:27:48;;;;;;;1.50;1.20;;;37.30;35.80;;;;;;10350506;28;20239;-71
2022/06/28 07:32:49;;;;;;;2.53;1.20;;;38.60;34.10;;;;;;10351164;28;20205;-70
2022/06/28 07:37:51;;;;;;;1.30;1.20;;;37.90;33.20;;;;;;10359572;28;20229;-70
2022/06/28 07:42:51;;;;;;;2.80;1.40;;;37.60;33.70;;;;;;10351481;28;20767;-70
2022/06/28 07:47:52;;;;;;;3.23;1.40;;;36.80;35.10;;;;;;10358714;28;20236;-70
2022/06/28 07:52:53;;;;;;;2.73;1.40;;;38.40;33.50;;;;;;10356463;28;20224;-70
2022/06/28 07:57:53;;;;;;;1.93;1.17;;;37.60;34.10;;;;;;10349281;28;20608;-70
2022/06/28 08:02:54;;;;;;;1.97;1.20;;;38.60;32.50;;;;;;10349733;28;20218;-70
2022/06/28 08:07:55;;;;;;;1.23;1.17;;;38.70;31.70;;;;;;10357588;28;20291;-70
2022/06/28 08:12:55;;;;;;;1.47;1.17;;;37.50;33.00;;;;;;10349385;28;20214;-70
2022/06/28 08:17:56;;;;;;;2.53;1.00;;;37.60;33.70;;;;;;10347957;28;20661;-70
2022/06/28 08:22:57;;;;;;;1.73;1.00;;;36.60;32.00;;;;;;10349564;28;20232;-70
2022/06/28 08:27:58;;;;;;;2.60;1.23;;;35.60;32.90;;;;;;10349150;28;20233;-70
2022/06/28 08:32:59;;;;;;;2.70;0.90;;;36.50;31.70;;;;;;10342792;28;20221;-70
2022/06/28 08:38:01;;;;;;;2.10;1.03;;;36.20;32.50;;;;;;10365207;28;20305;-70
2022/06/28 08:43:04;;;;;;;1.10;0.80;;;36.30;31.60;;;;;;10343902;28;20566;-70
2022/06/28 08:48:17;;;;;;;1.10;0.80;;;35.70;32.50;;;;;;10349326;28;20226;-70
2022/06/28 08:53:21;;;;;;;0.83;0.77;;;34.70;32.20;;;;;;10355357;28;20229;-70
2022/06/28 08:58:22;;;;;;;1.40;0.80;;;35.10;32.70;;;;;;10338318;28;20221;-70
2022/06/28 09:03:24;;;;;;;2.13;1.10;;;34.90;32.30;;;;;;10352172;28;20708;-70
2022/06/28 09:08:30;;;;;;;2.00;0.90;;;36.30;31.30;;;;;;10355086;28;20649;-70
2022/06/28 09:13:35;;;;;;;2.03;1.10;;;37.40;30.30;;;;;;10351325;28;20363;-70
2022/06/28 09:18:35;;;;;;;3.57;1.20;;;39.10;29.10;;;;;;10346212;28;20230;-70
2022/06/28 09:23:39;;;;;;;2.43;1.27;;;39.00;27.50;;;;;;10348941;28;20222;-70
2022/06/28 09:28:43;;;;;;;2.50;1.30;;;39.30;27.40;;;;;;10349754;28;20231;-71
2022/06/28 09:34:02;;;;;;;1.20;1.00;;;37.30;28.80;;;;;;10344022;28;20212;-70
2022/06/28 09:39:09;;;;;;;2.90;1.30;;;37.00;27.60;;;;;;10330266;28;20593;-70
2022/06/28 09:44:10;;;;;;;2.33;1.10;;;37.80;27.70;;;;;;10347503;28;20226;-70
2022/06/28 09:49:12;;;;;;;1.17;1.07;;;38.10;29.00;;;;;;10352557;28;20327;-69
2022/06/28 09:54:13;;;;;;;2.33;1.33;;;40.10;27.20;;;;;;10347607;28;20229;-70
2022/06/28 09:59:20;;;;;;;3.33;1.10;;;38.40;28.00;;;;;;10345603;28;20232;-70
2022/06/28 10:04:23;;;;;;;6.23;1.80;;;39.60;28.30;;;;;;10341032;28;20916;-71
2022/06/28 10:09:24;;;;;;;2.07;1.20;;;39.50;26.40;;;;;;10335440;28;20272;-69
2022/06/28 10:19:44;;;;;;;1.07;0.97;;;41.10;26.90;;;;;;10350550;28;20299;-71
2022/06/28 10:24:53;;;;;;;1.20;1.10;;;43.00;25.20;;;;;;10346362;28;20305;-70
2022/06/28 10:30:07;;;;;;;5.57;1.37;;;41.20;26.30;;;;;;10351249;28;20229;-71
2022/06/28 10:35:08;;;;;;;3.83;1.20;;;40.80;25.60;;;;;;10344498;28;20222;-69
2022/06/28 10:40:24;;;;;;;2.67;1.20;;;40.20;26.20;;;;;;10340372;28;20560;-71
2022/06/28 10:46:05;;;;;;;4.07;1.30;;;38.20;28.00;;;;;;10352818;28;20213;-70
2022/06/28 10:51:06;;;;;;;3.37;1.30;;;40.10;26.00;;;;;;10337407;28;20708;-70
2022/06/28 10:56:13;;;;;;;2.90;0.90;;;40.90;24.90;;;;;;10350204;28;20591;-70
2022/06/28 11:01:13;;;;;;;3.83;1.13;;;41.90;25.10;;;;;;10345685;28;20265;-70
2022/06/28 11:06:15;;;;;;;2.83;1.27;;;40.30;25.40;;;;;;10348721;28;20227;-70
2022/06/28 11:11:16;;;;;;;2.60;1.00;;;38.70;26.70;;;;;;10345518;28;20330;-70
2022/06/28 11:16:44;;;;;;;2.53;1.00;;;39.50;26.90;;;;;;10325199;28;20312;-69
2022/06/28 11:21:45;;;;;;;2.77;1.03;;;39.00;26.10;;;;;;10352230;28;20255;-70
2022/06/28 11:32:19;;;;;;;2.50;0.90;;;37.20;27.50;;;;;;10337460;28;20250;-70
2022/06/28 11:37:21;;;;;;;2.50;1.00;;;38.60;27.30;;;;;;10346568;28;20883;-71
2022/06/28 11:42:22;;;;;;;3.07;0.90;;;39.60;26.60;;;;;;10348055;28;20243;-70
2022/06/28 11:47:23;;;;;;;2.53;1.20;;;35.40;28.90;;;;;;10342833;28;20222;-70
2022/06/28 11:52:26;;;;;;;2.70;1.00;;;31.60;32.90;;;;;;10344273;28;20709;-70
2022/06/28 11:57:27;;;;;;;2.33;0.93;;;29.60;35.90;;;;;;10354768;28;20775;-70
2022/06/28 12:03:00;;;;;;;3.80;1.10;;;28.80;37.50;;;;;;10359108;28;20312;-70
2022/06/28 12:08:03;;;;;;;3.00;1.20;;;28.10;39.00;;;;;;10309702;28;20740;-69
2022/06/28 12:13:12;;;;;;;3.57;1.30;;;27.90;38.40;;;;;;10356543;28;20221;-69
2022/06/28 12:18:13;;;;;;;4.50;1.00;;;27.70;39.80;;;;;;10357603;28;20228;-70
2022/06/28 12:23:13;;;;;;;2.17;1.00;;;27.60;39.30;;;;;;10333425;28;20227;-68
2022/06/28 12:28:14;;;;;;;3.00;1.13;;;28.00;39.20;;;;;;10349797;28;20232;-70
2022/06/28 12:33:15;;;;;;;3.33;1.20;;;28.30;39.80;;;;;;10354747;28;20221;-68
2022/06/28 12:38:15;;;;;;;1.97;1.10;;;27.60;40.00;;;;;;10351071;28;20232;-70
2022/06/28 12:43:16;;;;;;;1.83;1.20;;;27.80;40.10;;;;;;10345143;28;20759;-69
2022/06/28 12:48:17;;;;;;;6.37;1.20;;;27.60;40.00;;;;;;10358160;28;20227;-70
2022/06/28 12:53:18;;;;;;;2.50;1.23;;;27.50;40.50;;;;;;10348751;28;20216;-70
2022/06/28 12:58:19;;;;;;;3.73;0.90;;;27.30;40.90;;;;;;10330663;28;20247;-70
2022/06/28 13:03:20;;;;;;;1.50;0.77;;;27.20;40.80;;;;;;10338759;28;20275;-70
2022/06/28 13:08:20;;;;;;;1.97;0.80;;;26.90;41.20;;;;;;10347877;28;20232;-70
2022/06/28 13:13:22;;;;;;;2.63;1.10;;;26.70;40.90;;;;;;10350733;28;20595;-70
2022/06/28 13:18:23;;;;;;;2.77;1.20;;;26.80;41.10;;;;;;10347509;28;20224;-69
2022/06/28 13:23:24;;;;;;;2.50;0.90;;;26.80;41.70;;;;;;10355839;28;20935;-70
2022/06/28 13:28:25;;;;;;;8.87;1.00;;;27.00;41.70;;;;;;10351236;28;20232;-69
2022/06/28 13:33:26;;;;;;;2.07;0.70;;;26.90;40.60;;;;;;10350691;28;20654;-70
2022/06/28 13:38:27;;;;;;;3.43;1.27;;;26.60;42.30;;;;;;10334163;28;20264;-69
2022/06/28 13:43:33;;;;;;;5.70;1.10;;;26.60;42.10;;;;;;10337996;28;20229;-69
2022/06/28 13:48:36;;;;;;;2.50;0.97;;;26.60;41.80;;;;;;10333375;28;20321;-70
2022/06/28 13:53:37;;;;;;;4.93;1.10;;;26.60;41.60;;;;;;10348103;28;20217;-69
2022/06/28 13:58:38;;;;;;;2.13;0.90;;;27.00;40.70;;;;;;10346119;28;20328;-70
2022/06/28 14:03:39;;;;;;;3.87;0.90;;;26.80;40.00;;;;;;10350178;28;20228;-69
2022/06/28 14:08:39;;;;;;;4.80;1.00;;;26.70;41.10;;;;;;10352075;28;20234;-69
2022/06/28 14:13:41;;;;;;;3.47;0.90;;;26.90;41.90;;;;;;10347769;28;20227;-70
2022/06/28 14:18:42;;;;;;;3.90;0.90;;;27.10;41.20;;;;;;10350814;28;20718;-70
2022/06/28 14:23:42;;;;;;;1.80;1.20;;;27.60;41.10;;;;;;10328261;28;20259;-70
2022/06/28 14:28:43;;;;;;;2.30;0.90;;;27.30;40.70;;;;;;10350595;28;20238;-69
2022/06/28 14:33:44;;;;;;;2.13;0.70;;;27.20;41.00;;;;;;10332509;28;20743;-70
2022/06/28 14:38:45;;;;;;;4.00;1.20;;;27.20;41.70;;;;;;10347246;28;20698;-69
2022/06/28 14:43:46;;;;;;;1.37;0.87;;;27.40;41.50;;;;;;10345936;28;20667;-69
2022/06/28 14:48:46;;;;;;;2.20;0.90;;;27.10;41.60;;;;;;10343962;28;20264;-69
2022/06/28 14:53:47;;;;;;;2.43;1.20;;;27.20;41.70;;;;;;10351421;28;20277;-70
2022/06/28 14:58:48;;;;;;;1.67;0.80;;;27.30;42.90;;;;;;10345390;28;20315;-70
2022/06/28 15:03:49;;;;;;;1.70;1.00;;;27.60;41.90;;;;;;10350738;28;20232;-70
2022/06/28 15:08:50;;;;;;;2.83;0.97;;;27.80;40.90;;;;;;10344300;28;20253;-70
2022/06/28 15:13:50;;;;;;;1.80;0.90;;;27.80;41.20;;;;;;10351715;28;20307;-70
2022/06/28 15:18:51;;;;;;;1.33;0.90;;;27.50;41.70;;;;;;10327373;28;20226;-71
2022/06/28 15:34:34;;;;;;;5.77;1.10;;;27.20;43.20;;;;;;10355340;28;20256;-70
2022/06/28 15:39:35;;;;;;;5.27;0.80;;;27.40;42.50;;;;;;10341696;28;20224;-69
2022/06/28 15:44:36;;;;;;;7.70;1.17;;;27.10;43.00;;;;;;10355263;28;20228;-71
2022/06/28 15:49:37;;;;;;;1.87;1.00;;;27.10;42.50;;;;;;10358253;28;20275;-69
2022/06/28 15:54:37;;;;;;;1.87;1.07;;;26.90;42.50;;;;;;10350524;28;20297;-69
2022/06/28 15:59:38;;;;;;;2.70;1.00;;;26.80;43.70;;;;;;10356000;28;20267;-70
2022/06/28 16:04:39;;;;;;;2.27;1.03;;;26.80;43.60;;;;;;10355957;28;20234;-70
2022/06/28 16:09:40;;;;;;;2.03;0.97;;;26.90;43.50;;;;;;10352885;28;20260;-69
2022/06/28 16:14:41;;;;;;;1.90;1.00;;;27.00;43.30;;;;;;10340562;28;20225;-70
2022/06/28 16:19:41;;;;;;;2.13;1.10;;;27.00;43.50;;;;;;10355185;28;20217;-70
2022/06/28 16:24:42;;;;;;;1.63;1.07;;;27.00;43.50;;;;;;10356276;28;20280;-69
2022/06/28 16:29:43;;;;;;;2.43;0.90;;;27.10;43.50;;;;;;10350473;28;20247;-70
2022/06/28 16:34:43;;;;;;;2.03;0.90;;;27.20;43.80;;;;;;10356575;28;20240;-70
2022/06/28 16:39:44;;;;;;;1.03;0.93;;;27.20;42.90;;;;;;10329483;28;20632;-70
2022/06/28 16:44:49;;;;;;;1.23;0.97;;;27.20;43.20;;;;;;10355078;28;20223;-69
2022/06/28 16:49:50;;;;;;;3.43;1.40;;;27.40;43.70;;;;;;10350124;28;20233;-70
2022/06/28 16:54:51;;;;;;;3.10;1.33;;;27.60;43.40;;;;;;10352646;28;20213;-70
2022/06/28 16:59:52;;;;;;;2.10;1.10;;;27.50;43.90;;;;;;10348626;28;20229;-70
2022/06/28 17:04:52;;;;;;;1.93;1.30;;;27.30;43.50;;;;;;10355992;28;20647;-70
2022/06/28 17:09:58;;;;;;;2.27;0.90;;;27.30;44.00;;;;;;10349087;28;20267;-70
2022/06/28 17:15:00;;;;;;;2.50;1.20;;;27.30;43.50;;;;;;10337484;28;20279;-69
2022/06/28 17:20:00;;;;;;;5.13;1.40;;;27.40;44.20;;;;;;10339835;28;20230;-70
2022/06/28 17:25:01;;;;;;;2.37;0.90;;;27.40;44.50;;;;;;10356263;28;20695;-69
2022/06/28 17:30:04;;;;;;;3.97;1.03;;;27.30;44.80;;;;;;10347815;28;20867;-70
2022/06/28 17:35:06;;;;;;;2.77;0.90;;;27.30;44.40;;;;;;10354789;28;20227;-69
2022/06/28 17:40:07;;;;;;;4.27;1.50;;;27.30;45.10;;;;;;10348232;28;20196;-70
2022/06/28 17:45:08;;;;;;;4.40;1.50;;;27.40;45.10;;;;;;10352977;28;20190;-70
2022/06/28 17:50:10;;;;;;;1.80;1.10;;;27.40;46.00;;;;;;10328186;28;20214;-69
2022/06/28 17:55:11;;;;;;;1.80;0.90;;;27.40;44.80;;;;;;10354691;28;20269;-69
2022/06/28 18:00:12;;;;;;;0.80;0.80;;;27.40;45.00;;;;;;10346729;28;20276;-71
2022/06/28 18:05:13;;;;;;;2.13;1.50;;;27.40;45.80;;;;;;10351686;28;20204;-70
2022/06/28 18:10:15;;;;;;;3.00;1.00;;;27.30;45.30;;;;;;10334008;28;20603;-70
2022/06/28 18:15:16;;;;;;;1.00;0.87;;;27.20;45.40;;;;;;10348491;28;20181;-70
2022/06/28 18:20:19;;;;;;;2.30;0.90;;;26.70;44.60;;;;;;10337847;28;20912;-70
2022/06/28 18:25:20;;;;;;;1.30;1.00;;;26.50;45.20;;;;;;10352723;28;20189;-70
2022/06/28 18:30:22;;;;;;;1.97;1.40;;;26.30;46.00;;;;;;10326566;28;20585;-70
2022/06/28 18:35:23;;;;;;;3.30;1.00;;;26.10;46.40;;;;;;10330865;28;20182;-70
2022/06/28 18:40:24;;;;;;;2.47;1.23;;;25.90;46.20;;;;;;10337310;28;20226;-69
2022/06/28 18:45:25;;;;;;;1.37;0.93;;;25.70;47.10;;;;;;10320607;28;20217;-69
2022/06/28 18:50:25;;;;;;;1.23;1.00;;;25.60;47.90;;;;;;10334855;28;20297;-69
2022/06/28 18:55:26;;;;;;;2.40;0.90;;;25.40;48.80;;;;;;10335822;28;20749;-69
2022/06/28 19:00:27;;;;;;;3.80;1.40;;;25.30;49.50;;;;;;10334171;28;20217;-71
2022/06/28 19:05:27;;;;;;;2.80;1.00;;;25.10;50.40;;;;;;10344801;28;20230;-69
2022/06/28 19:10:28;;;;;;;3.43;1.00;;;25.00;51.20;;;;;;10360545;28;20231;-69
2022/06/28 19:15:29;;;;;;;1.87;0.97;;;24.80;52.00;;;;;;10350280;28;20289;-70
2022/06/28 19:20:30;;;;;;;1.83;1.10;;;24.60;52.70;;;;;;10358695;28;20216;-69
2022/06/28 19:25:31;;;;;;;2.13;0.97;;;24.50;53.30;;;;;;10352555;28;20217;-70
2022/06/28 19:30:31;;;;;;;1.60;1.30;;;24.30;53.30;;;;;;10346088;28;20725;-70
2022/06/28 19:35:32;;;;;;;4.17;1.17;;;24.20;53.90;;;;;;10352620;28;20221;-70
2022/06/28 19:40:33;;;;;;;2.00;1.30;;;24.10;54.60;;;;;;10333345;28;20214;-70
2022/06/28 19:45:35;;;;;;;2.57;1.00;;;23.90;55.00;;;;;;10340762;28;20607;-69
2022/06/28 19:50:36;;;;;;;3.37;1.50;;;23.80;55.60;;;;;;10346373;28;20281;-69
2022/06/28 19:55:37;;;;;;;2.03;1.30;;;23.70;56.00;;;;;;10346414;28;20230;-70
2022/06/28 20:00:38;;;;;;;3.03;1.20;;;23.60;55.60;;;;;;10344677;28;20221;-68
2022/06/28 20:05:39;;;;;;;2.10;1.33;;;23.60;55.80;;;;;;10347433;28;20689;-68
2022/06/28 20:10:40;;;;;;;3.10;1.40;;;23.50;55.50;;;;;;10342615;28;20360;-71
2022/06/28 20:15:41;;;;;;;4.97;1.27;;;23.50;55.80;;;;;;10336176;28;20221;-67
2022/06/28 20:20:42;;;;;;;1.53;1.13;;;23.50;55.20;;;;;;10338844;28;20236;-67
2022/06/28 20:25:46;;;;;;;1.97;1.33;;;23.50;55.40;;;;;;10339377;28;20708;-68
2022/06/28 20:30:46;;;;;;;4.97;1.70;;;23.40;55.80;;;;;;10322246;28;20772;-69
2022/06/28 20:35:51;;;;;;;4.90;1.50;;;23.30;56.10;;;;;;10356279;28;20445;-68
2022/06/28 20:42:12;;;;;;;6.27;1.73;;;23.20;56.60;;;;;;10323021;28;20602;-68
2022/06/28 20:46:12;;;;;;;3.03;1.57;;;23.10;57.40;;;;;;10334188;28;20261;-67
2022/06/28 20:51:13;;;;;;;3.80;1.53;;;23.00;57.70;;;;;;10330973;28;20250;-67
2022/06/28 20:56:14;;;;;;;4.30;1.50;;;22.80;58.20;;;;;;10352472;28;20218;-68
2022/06/28 21:01:18;;;;;;;3.53;1.80;;;22.70;58.60;;;;;;10343493;28;20222;-69
2022/06/28 21:06:19;;;;;;;7.67;1.80;;;22.60;58.80;;;;;;10333300;28;20229;-67
2022/06/28 21:11:20;;;;;;;2.67;1.73;;;22.40;59.40;;;;;;10331345;28;20305;-68
2022/06/28 21:16:25;;;;;;;3.00;1.77;;;22.30;60.10;;;;;;10331208;28;20297;-70
2022/06/28 21:21:25;;;;;;;4.17;1.50;;;22.20;60.70;;;;;;10344149;28;20225;-68
2022/06/28 21:26:26;;;;;;;5.63;2.27;;;22.10;61.10;;;;;;10358538;28;20237;-68
2022/06/28 21:31:27;;;;;;;3.77;1.57;;;22.10;61.80;;;;;;10317997;28;20221;-68
2022/06/28 21:36:29;;;;;;;2.63;1.50;;;22.00;61.10;;;;;;10307383;28;20298;-68
2022/06/28 21:41:32;;;;;;;3.00;1.60;;;22.00;61.20;;;;;;10331420;28;20365;-69
2022/06/28 21:46:36;;;;;;;2.27;1.30;;;21.90;60.80;;;;;;10345209;28;20222;-69
2022/06/28 21:51:43;;;;;;;8.57;1.50;;;21.90;60.50;;;;;;10348840;28;20307;-69
2022/06/28 21:56:44;;;;;;;5.60;1.37;;;21.80;60.10;;;;;;10337289;28;20229;-68
2022/06/28 22:01:45;;;;;;;2.17;1.30;;;21.80;60.20;;;;;;10330210;28;20230;-69
2022/06/28 22:06:45;;;;;;;7.47;1.63;;;21.70;60.00;;;;;;10334517;28;20725;-69
2022/06/28 22:11:46;;;;;;;1.43;1.10;;;21.70;60.60;;;;;;10326899;28;20279;-68
2022/06/28 22:16:47;;;;;;;1.77;1.30;;;21.70;60.80;;;;;;10341564;28;20225;-68
2022/06/28 22:21:47;;;;;;;2.77;1.10;;;21.70;61.50;;;;;;10337323;28;20308;-68
2022/06/28 22:26:48;;;;;;;4.10;1.43;;;21.60;61.70;;;;;;10344014;28;20313;-68
2022/06/28 22:31:49;;;;;;;3.17;1.57;;;21.60;62.60;;;;;;10321721;28;20241;-68
2022/06/28 22:36:49;;;;;;;2.77;1.30;;;21.60;62.70;;;;;;10342043;28;20252;-68
2022/06/28 22:41:50;;;;;;;4.13;1.40;;;21.60;62.80;;;;;;10344305;28;20222;-68
2022/06/28 22:46:51;;;;;;;1.97;1.07;;;21.50;62.70;;;;;;10335834;28;20972;-69
2022/06/28 22:51:53;;;;;;;1.77;1.07;;;21.50;62.40;;;;;;10318075;28;20236;-68
2022/06/28 22:56:55;;;;;;;1.67;1.20;;;21.50;62.90;;;;;;10347441;28;20237;-68
2022/06/28 23:01:56;;;;;;;5.33;1.47;;;21.50;62.40;;;;;;10325847;28;20225;-67
2022/06/28 23:06:56;;;;;;;2.50;1.50;;;21.60;62.70;;;;;;10313999;28;20646;-67
2022/06/28 23:11:57;;;;;;;2.80;1.20;;;21.60;62.30;;;;;;10343513;28;20222;-67
2022/06/28 23:16:57;;;;;;;5.37;1.30;;;21.60;62.40;;;;;;10313174;28;20222;-68
2022/06/28 23:21:58;;;;;;;3.93;1.33;;;21.60;62.30;;;;;;10317692;28;20677;-68
2022/06/28 23:26:59;;;;;;;1.90;1.20;;;21.60;62.10;;;;;;10331156;28;20236;-68
2022/06/28 23:31:59;;;;;;;1.73;1.27;;;21.60;62.40;;;;;;10347813;28;20233;-68
2022/06/28 23:37:01;;;;;;;3.40;1.47;;;21.60;62.60;;;;;;10324901;28;20619;-67
2022/06/28 23:42:02;;;;;;;3.13;1.40;;;21.60;62.40;;;;;;10317927;28;20234;-66
2022/06/28 23:47:02;;;;;;;2.33;1.63;;;21.60;62.90;;;;;;10329363;28;20241;-67
2022/06/28 23:52:03;;;;;;;2.87;1.13;;;21.60;62.80;;;;;;10335216;28;20317;-66
2022/06/28 23:57:04;;;;;;;2.67;1.40;;;21.60;62.10;;;;;;10353427;28;20300;-67
